createdAt,value
2023-01-25T00:00:05.664Z,26.75
2023-01-25T00:02:32.604Z,25.95
2023-01-25T00:04:59.461Z,26.08
2023-01-25T00:07:26.177Z,25.95
2023-01-25T00:09:52.876Z,19.13
2023-01-25T00:12:19.718Z,24.00
2023-01-25T00:14:46.465Z,18.77
2023-01-25T00:17:13.209Z,18.45
2023-01-25T00:19:39.804Z,20.38
2023-01-25T00:22:06.927Z,23.65
2023-01-25T00:24:33.586Z,26.10
2023-01-25T00:27:00.276Z,27.60
2023-01-25T00:29:26.938Z,17.20
2023-01-25T00:32:05.845Z,24.38
2023-01-25T00:34:45.562Z,8.77
2023-01-25T00:37:18.341Z,28.30
2023-01-25T00:39:45.232Z,27.80
2023-01-25T00:42:12.984Z,21.83
2023-01-25T00:44:40.062Z,26.75
2023-01-25T00:47:07.085Z,28.17
2023-01-25T00:49:33.869Z,28.83
2023-01-25T00:52:00.725Z,27.67
2023-01-25T00:54:27.503Z,19.83
2023-01-25T00:56:56.457Z,21.88
2023-01-25T00:59:24.148Z,20.67
2023-01-25T01:01:51.205Z,23.27
2023-01-25T01:04:18.614Z,19.25
2023-01-25T01:06:45.634Z,20.50
2023-01-25T01:09:17.212Z,21.30
2023-01-25T01:11:44.177Z,24.25
2023-01-25T01:14:11.479Z,18.52
2023-01-25T01:16:39.041Z,21.45
2023-01-25T01:19:06.124Z,23.58
2023-01-25T01:21:32.902Z,22.63
2023-01-25T01:24:00.066Z,21.55
2023-01-25T01:26:26.946Z,22.33
2023-01-25T01:28:53.629Z,19.85
2023-01-25T01:31:23.447Z,20.38
2023-01-25T01:33:55.233Z,19.30
2023-01-25T01:36:24.277Z,23.33
2023-01-25T01:38:51.048Z,21.70
2023-01-25T01:41:18.273Z,23.13
2023-01-25T01:43:45.402Z,16.58
2023-01-25T01:46:15.401Z,16.98
2023-01-25T01:48:56.437Z,24.60
2023-01-25T01:52:00.707Z,19.35
2023-01-25T01:54:33.460Z,21.95
2023-01-25T01:57:16.331Z,23.20
2023-01-25T02:00:16.336Z,23.35
2023-01-25T02:02:43.063Z,25.45
2023-01-25T02:05:17.404Z,26.80
2023-01-25T02:07:47.029Z,22.48
2023-01-25T02:10:13.803Z,12.55
2023-01-25T02:12:41.187Z,20.30
2023-01-25T02:15:08.790Z,23.15
2023-01-25T02:17:38.721Z,25.92
2023-01-25T02:20:13.885Z,18.65
2023-01-25T02:23:05.740Z,13.32
2023-01-25T02:25:32.460Z,18.40
2023-01-25T02:28:16.795Z,21.48
2023-01-25T02:30:43.872Z,21.25
2023-01-25T02:33:11.145Z,20.98
2023-01-25T02:35:40.280Z,21.15
2023-01-25T02:38:07.996Z,23.60
2023-01-25T02:40:42.986Z,21.88
2023-01-25T02:43:09.639Z,16.10
2023-01-25T02:45:36.430Z,27.85
2023-01-25T02:48:03.097Z,15.05
2023-01-25T02:50:29.967Z,21.35
2023-01-25T02:52:56.723Z,22.75
2023-01-25T02:55:23.396Z,25.95
2023-01-25T02:57:50.058Z,21.83
2023-01-25T03:00:16.974Z,24.52
2023-01-25T03:02:43.789Z,20.73
2023-01-25T03:05:10.665Z,15.40
2023-01-25T03:07:37.449Z,15.65
2023-01-25T03:10:04.524Z,20.38
2023-01-25T03:12:31.116Z,18.30
2023-01-25T03:14:57.761Z,21.00
2023-01-25T03:17:25.284Z,25.35
2023-01-25T03:19:53.876Z,20.63
2023-01-25T03:22:20.635Z,23.23
2023-01-25T03:24:47.356Z,21.17
2023-01-25T03:27:14.296Z,19.33
2023-01-25T03:29:41.756Z,23.85
2023-01-25T03:32:09.051Z,21.85
2023-01-25T03:34:35.935Z,20.75
2023-01-25T03:37:03.467Z,24.30
2023-01-25T03:39:30.091Z,23.80
2023-01-25T03:41:56.782Z,24.10
2023-01-25T03:44:23.576Z,24.55
2023-01-25T03:46:50.189Z,25.48
2023-01-25T03:49:18.408Z,17.98
2023-01-25T03:51:45.091Z,15.50
2023-01-25T03:54:11.737Z,21.60
2023-01-25T03:56:38.850Z,22.00
2023-01-25T03:59:06.332Z,21.90
2023-01-25T04:01:33.195Z,18.90
2023-01-25T04:03:59.834Z,20.15
2023-01-25T04:06:26.605Z,19.20
2023-01-25T04:08:53.300Z,20.70
2023-01-25T04:11:20.088Z,16.98
2023-01-25T04:13:46.744Z,25.23
2023-01-25T04:16:13.517Z,21.45
2023-01-25T04:18:40.747Z,22.13
2023-01-25T04:21:07.629Z,27.38
2023-01-25T04:23:34.367Z,25.20
2023-01-25T04:26:05.199Z,30.10
2023-01-25T04:28:33.300Z,21.55
2023-01-25T04:31:00.092Z,23.50
2023-01-25T04:33:27.190Z,21.48
2023-01-25T04:35:53.997Z,20.30
2023-01-25T04:38:21.193Z,23.30
2023-01-25T04:40:47.839Z,19.65
2023-01-25T04:43:16.451Z,19.33
2023-01-25T04:45:43.298Z,17.08
2023-01-25T04:48:11.500Z,24.95
2023-01-25T04:50:39.657Z,19.45
2023-01-25T04:53:07.267Z,23.08
2023-01-25T04:55:34.302Z,16.55
2023-01-25T04:58:01.490Z,21.65
2023-01-25T05:00:29.462Z,21.27
2023-01-25T05:02:56.313Z,22.50
2023-01-25T05:05:23.088Z,22.75
2023-01-25T05:07:49.721Z,23.52
2023-01-25T05:10:16.375Z,17.85
2023-01-25T05:12:43.821Z,21.70
2023-01-25T05:15:11.536Z,22.67
2023-01-25T05:17:38.583Z,19.88
2023-01-25T05:20:05.581Z,21.88
2023-01-25T05:22:32.480Z,24.50
2023-01-25T05:24:59.363Z,24.23
2023-01-25T05:27:27.377Z,24.83
2023-01-25T05:29:55.172Z,17.58
2023-01-25T05:32:23.481Z,27.35
2023-01-25T05:34:50.624Z,21.05
2023-01-25T05:37:19.631Z,23.40
2023-01-25T05:39:46.249Z,22.65
2023-01-25T05:42:16.572Z,20.10
2023-01-25T05:44:46.075Z,20.98
2023-01-25T05:47:16.103Z,25.95
2023-01-25T05:49:43.073Z,22.77
2023-01-25T05:52:17.028Z,22.00
2023-01-25T05:54:44.494Z,17.55
2023-01-25T05:57:13.353Z,22.42
2023-01-25T05:59:40.036Z,26.88
2023-01-25T06:02:06.953Z,17.73
2023-01-25T06:04:33.837Z,23.02
2023-01-25T06:07:00.614Z,23.50
2023-01-25T06:09:27.486Z,20.63
2023-01-25T06:11:54.161Z,13.35
2023-01-25T06:14:20.921Z,26.33
2023-01-25T06:16:47.732Z,23.38
2023-01-25T06:19:14.630Z,23.98
2023-01-25T06:21:41.353Z,26.48
2023-01-25T06:24:08.384Z,25.50
2023-01-25T06:26:35.123Z,25.20
2023-01-25T06:29:01.937Z,20.35
2023-01-25T06:31:28.665Z,19.85
2023-01-25T06:33:55.492Z,22.58
2023-01-25T06:36:22.760Z,20.70
2023-01-25T06:38:53.107Z,22.88
2023-01-25T06:41:20.224Z,13.93
2023-01-25T06:43:47.991Z,24.27
2023-01-25T06:46:14.892Z,19.00
2023-01-25T06:48:42.913Z,21.45
2023-01-25T06:51:12.476Z,24.00
2023-01-25T06:53:41.684Z,20.55
2023-01-25T06:56:12.459Z,25.23
2023-01-25T06:58:39.834Z,29.20
2023-01-25T07:01:13.877Z,22.45
2023-01-25T07:03:41.279Z,24.20
2023-01-25T07:06:10.515Z,23.20
2023-01-25T07:08:37.899Z,25.67
2023-01-25T07:11:07.035Z,24.35
2023-01-25T07:13:34.734Z,24.85
2023-01-25T07:16:04.810Z,19.33
2023-01-25T07:18:33.172Z,25.95
2023-01-25T07:21:29.601Z,21.15
2023-01-25T07:24:04.251Z,24.38
2023-01-25T07:26:31.826Z,24.05
2023-01-25T07:28:59.518Z,14.63
2023-01-25T07:31:26.405Z,24.40
2023-01-25T07:33:58.240Z,26.15
2023-01-25T07:36:26.116Z,26.90
2023-01-25T07:38:57.955Z,12.25
2023-01-25T07:41:25.631Z,12.88
2023-01-25T07:43:52.637Z,26.73
2023-01-25T07:46:19.606Z,18.58
2023-01-25T07:48:49.017Z,23.88
2023-01-25T07:51:37.860Z,23.85
2023-01-25T07:54:05.379Z,23.13
2023-01-25T07:56:37.816Z,23.85
2023-01-25T07:59:04.765Z,24.73
2023-01-25T08:01:34.627Z,27.67
2023-01-25T08:04:02.931Z,20.73
2023-01-25T08:06:35.909Z,23.83
2023-01-25T08:09:15.243Z,24.75
2023-01-25T08:11:42.508Z,21.02
2023-01-25T08:14:09.765Z,27.30
2023-01-25T08:16:36.495Z,11.57
2023-01-25T08:19:04.137Z,27.63
2023-01-25T08:21:33.794Z,30.58
2023-01-25T08:24:03.843Z,26.88
2023-01-25T08:26:30.706Z,19.35
2023-01-25T08:28:58.059Z,24.45
2023-01-25T08:31:28.181Z,27.65
2023-01-25T08:33:56.096Z,26.60
2023-01-25T08:36:28.308Z,27.90
2023-01-25T08:38:57.914Z,21.17
2023-01-25T08:41:25.401Z,27.80
2023-01-25T08:43:54.266Z,27.58
2023-01-25T08:46:22.644Z,27.38
2023-01-25T08:48:55.160Z,23.50
2023-01-25T08:51:22.459Z,27.65
2023-01-25T08:53:49.117Z,27.10
2023-01-25T08:56:17.230Z,24.27
2023-01-25T08:58:47.103Z,23.92
2023-01-25T09:01:15.981Z,23.38
2023-01-25T09:03:45.385Z,13.80
2023-01-25T09:06:13.567Z,12.52
2023-01-25T09:08:41.586Z,24.55
2023-01-25T09:11:13.802Z,22.85
2023-01-25T09:13:44.565Z,19.38
2023-01-25T09:16:16.768Z,19.33
2023-01-25T09:18:44.997Z,23.52
2023-01-25T09:21:14.120Z,14.23
2023-01-25T09:23:51.203Z,23.77
2023-01-25T09:26:25.032Z,14.32
2023-01-25T09:28:53.566Z,18.88
2023-01-25T09:31:23.453Z,24.38
2023-01-25T09:33:52.738Z,27.02
2023-01-25T09:36:20.696Z,15.70
2023-01-25T09:38:47.481Z,22.63
2023-01-25T09:41:42.331Z,16.02
2023-01-25T09:44:29.732Z,19.23
2023-01-25T09:47:00.132Z,15.35
2023-01-25T09:49:50.870Z,28.25
2023-01-25T09:52:30.596Z,18.45
2023-01-25T09:54:58.355Z,21.20
2023-01-25T09:57:33.746Z,30.58
2023-01-25T10:00:14.805Z,18.63
2023-01-25T10:02:58.826Z,25.38
2023-01-25T10:05:30.821Z,20.23
2023-01-25T10:08:21.234Z,15.45
2023-01-25T10:10:52.497Z,20.35
2023-01-25T10:13:23.019Z,23.15
2023-01-25T10:15:59.396Z,18.63
2023-01-25T10:18:46.943Z,10.00
2023-01-25T10:21:23.872Z,21.83
2023-01-25T10:24:28.441Z,20.30
2023-01-25T10:27:10.355Z,18.73
2023-01-25T10:29:39.085Z,24.23
2023-01-25T10:32:19.688Z,34.22
2023-01-25T10:34:56.408Z,25.35
2023-01-25T10:37:32.744Z,22.42
2023-01-25T10:40:12.348Z,20.80
2023-01-25T10:42:48.142Z,27.30
2023-01-25T10:45:16.380Z,22.48
2023-01-25T10:47:47.166Z,26.10
2023-01-25T10:50:55.863Z,18.42
2023-01-25T10:53:28.205Z,23.85
2023-01-25T10:56:17.199Z,16.58
2023-01-25T10:58:47.356Z,26.13
2023-01-25T11:01:29.379Z,25.45
2023-01-25T11:03:56.694Z,14.48
2023-01-25T11:06:35.974Z,26.35
2023-01-25T11:09:22.607Z,18.38
2023-01-25T11:11:56.861Z,17.65
2023-01-25T11:14:28.527Z,20.83
2023-01-25T11:16:57.322Z,20.83
2023-01-25T11:19:28.999Z,22.08
2023-01-25T11:21:57.911Z,18.05
2023-01-25T11:24:29.512Z,19.52
2023-01-25T11:27:14.202Z,16.60
2023-01-25T11:29:41.009Z,16.63
2023-01-25T11:32:21.456Z,20.17
2023-01-25T11:34:50.019Z,19.27
2023-01-25T11:37:54.419Z,24.33
2023-01-25T11:40:33.815Z,17.73
2023-01-25T11:43:12.236Z,20.23
2023-01-25T11:46:16.587Z,18.23
2023-01-25T11:49:21.785Z,23.27
2023-01-25T11:52:03.053Z,28.35
2023-01-25T11:54:44.864Z,28.70
2023-01-25T11:57:33.349Z,29.88
2023-01-25T12:00:26.070Z,24.80
2023-01-25T12:03:11.171Z,24.35
2023-01-25T12:05:53.831Z,20.58
2023-01-25T12:08:40.760Z,20.15
2023-01-25T12:11:40.765Z,23.33
2023-01-25T12:14:25.440Z,26.00
2023-01-25T12:17:20.175Z,15.20
2023-01-25T12:20:20.261Z,20.40
2023-01-25T12:23:29.894Z,23.00
2023-01-25T12:26:32.186Z,19.08
2023-01-25T12:29:44.163Z,20.55
2023-01-25T12:32:28.818Z,24.17
2023-01-25T12:35:31.469Z,23.80
2023-01-25T12:38:09.783Z,20.98
2023-01-25T12:41:06.767Z,24.02
2023-01-25T12:44:19.588Z,21.08
2023-01-25T12:47:31.855Z,19.65
2023-01-25T12:50:25.402Z,15.18
2023-01-25T12:53:00.639Z,24.80
2023-01-25T12:55:30.284Z,26.52
2023-01-25T12:58:17.208Z,22.35
2023-01-25T13:01:14.348Z,14.55
2023-01-25T13:04:07.748Z,30.05
2023-01-25T13:06:49.907Z,21.33
2023-01-25T13:09:24.884Z,19.05
2023-01-25T13:15:02.160Z,22.40
2023-01-25T13:17:43.703Z,24.13
2023-01-25T13:20:41.733Z,22.92
2023-01-25T13:24:02.889Z,26.42
2023-01-25T13:27:00.468Z,20.05
2023-01-25T13:29:39.404Z,24.50
2023-01-25T13:32:21.695Z,21.65
2023-01-25T13:35:00.563Z,22.65
2023-01-25T13:37:36.015Z,19.20
2023-01-25T13:40:31.016Z,24.88
2023-01-25T13:43:30.093Z,16.25
2023-01-25T13:46:08.019Z,23.58
2023-01-25T13:49:14.455Z,24.92
2023-01-25T13:51:48.417Z,22.95
2023-01-25T13:54:31.945Z,17.83
2023-01-25T13:57:12.879Z,18.08
2023-01-25T13:59:54.343Z,21.15
2023-01-25T14:02:30.232Z,20.23
2023-01-25T14:04:58.869Z,24.00
2023-01-25T14:07:44.713Z,21.73
2023-01-25T14:10:28.773Z,17.15
2023-01-25T14:13:36.340Z,15.93
2023-01-25T14:16:23.628Z,19.10
2023-01-25T14:19:24.004Z,22.10
2023-01-25T14:22:19.039Z,28.08
2023-01-25T14:25:06.486Z,21.88
2023-01-25T14:27:53.078Z,21.30
2023-01-25T14:30:27.871Z,25.00
2023-01-25T14:33:30.587Z,12.75
2023-01-25T14:36:50.508Z,16.50
2023-01-25T14:39:28.950Z,21.60
2023-01-25T14:42:05.542Z,19.15
2023-01-25T14:47:33.091Z,16.42
2023-01-25T14:50:34.743Z,21.63
2023-01-25T14:53:25.085Z,27.90
2023-01-25T14:56:08.992Z,25.77
2023-01-25T14:58:59.829Z,28.02
2023-01-25T15:01:39.631Z,27.30
2023-01-25T15:04:16.414Z,26.48
2023-01-25T15:06:58.904Z,17.95
2023-01-25T15:09:47.933Z,32.47
2023-01-25T15:12:33.884Z,28.60
2023-01-25T15:15:19.498Z,30.98
2023-01-25T15:18:04.845Z,26.48
2023-01-25T15:20:44.869Z,20.63
2023-01-25T15:23:29.766Z,28.50
2023-01-25T15:28:40.213Z,36.42
2023-01-25T15:31:29.920Z,30.63
2023-01-25T15:34:01.479Z,37.80
2023-01-25T15:36:33.302Z,31.67
2023-01-25T15:39:06.335Z,38.45
2023-01-25T15:41:32.971Z,35.95
2023-01-25T15:44:01.400Z,27.45
2023-01-25T15:46:30.627Z,8.85
2023-01-25T15:48:57.378Z,18.98
2023-01-25T15:51:24.170Z,25.67
2023-01-25T15:53:50.918Z,21.30
2023-01-25T15:56:32.769Z,19.33
2023-01-25T15:59:05.217Z,22.40
2023-01-25T16:01:32.002Z,35.15
2023-01-25T16:04:00.041Z,30.50
2023-01-25T16:06:52.317Z,19.55
2023-01-25T16:09:20.304Z,34.00
2023-01-25T16:11:55.918Z,19.92
2023-01-25T16:14:28.888Z,26.63
2023-01-25T16:16:57.967Z,23.10
2023-01-25T16:19:25.250Z,30.17
2023-01-25T16:21:52.405Z,31.88
2023-01-25T16:24:19.181Z,25.73
2023-01-25T16:26:53.140Z,34.10
2023-01-25T16:29:20.123Z,38.85
2023-01-25T16:31:47.032Z,25.17
2023-01-25T16:34:13.734Z,17.90
2023-01-25T16:36:40.551Z,41.47
2023-01-25T16:39:22.297Z,22.25
2023-01-25T16:41:49.813Z,39.33
2023-01-25T16:44:16.626Z,41.65
2023-01-25T16:46:43.492Z,28.10
2023-01-25T16:49:21.968Z,35.35
2023-01-25T16:51:52.013Z,21.30
2023-01-25T16:54:20.168Z,39.63
2023-01-25T16:56:48.358Z,36.78
2023-01-25T16:59:15.537Z,38.63
2023-01-25T17:01:42.601Z,40.90
2023-01-25T17:04:09.956Z,32.45
2023-01-25T17:06:39.707Z,28.58
2023-01-25T17:09:21.423Z,22.65
2023-01-25T17:11:48.700Z,29.63
2023-01-25T17:14:17.582Z,33.63
2023-01-25T17:16:45.090Z,37.70
2023-01-25T17:19:14.238Z,22.08
2023-01-25T17:21:41.357Z,26.60
2023-01-25T17:24:08.763Z,33.53
2023-01-25T17:26:35.563Z,21.60
2023-01-25T17:29:02.809Z,24.23
2023-01-25T17:31:32.490Z,29.30
2023-01-25T17:34:02.823Z,35.17
2023-01-25T17:36:29.561Z,31.88
2023-01-25T17:38:56.275Z,29.40
2023-01-25T17:41:23.017Z,37.88
2023-01-25T17:43:53.027Z,41.70
2023-01-25T17:46:25.404Z,41.80
2023-01-25T17:48:59.341Z,31.27
2023-01-25T17:51:26.335Z,33.80
2023-01-25T17:53:53.443Z,32.33
2023-01-25T17:56:20.487Z,38.40
2023-01-25T17:58:47.499Z,31.98
2023-01-25T18:01:18.140Z,34.80
2023-01-25T18:03:46.397Z,43.78
2023-01-25T18:06:16.797Z,46.47
2023-01-25T18:08:48.957Z,51.95
2023-01-25T18:11:21.343Z,36.50
2023-01-25T18:13:51.469Z,32.42
2023-01-25T18:16:22.230Z,40.78
2023-01-25T18:18:51.096Z,43.15
2023-01-25T18:21:25.150Z,39.80
2023-01-25T18:23:54.263Z,34.60
2023-01-25T18:26:26.284Z,34.50
2023-01-25T18:29:13.171Z,31.88
2023-01-25T18:31:39.926Z,32.72
2023-01-25T18:34:06.583Z,35.15
2023-01-25T18:36:33.276Z,40.10
2023-01-25T18:39:01.321Z,34.83
2023-01-25T18:41:27.964Z,46.92
2023-01-25T18:43:56.658Z,37.53
2023-01-25T18:46:23.543Z,30.27
2023-01-25T18:48:51.189Z,42.20
2023-01-25T18:51:18.027Z,39.00
2023-01-25T18:53:47.511Z,40.90
2023-01-25T18:56:20.074Z,29.13
2023-01-25T18:58:46.822Z,34.30
2023-01-25T19:01:16.742Z,33.90
2023-01-25T19:03:45.121Z,43.25
2023-01-25T19:06:12.551Z,44.00
2023-01-25T19:08:41.375Z,39.78
2023-01-25T19:11:09.866Z,33.75
2023-01-25T19:13:38.557Z,36.83
2023-01-25T19:16:08.434Z,49.78
2023-01-25T19:18:37.719Z,43.78
2023-01-25T19:21:09.054Z,36.25
2023-01-25T19:23:38.479Z,29.08
2023-01-25T19:26:06.535Z,39.92
2023-01-25T19:28:34.913Z,40.13
2023-01-25T19:31:13.815Z,36.08
2023-01-25T19:33:41.097Z,32.03
2023-01-25T19:36:12.953Z,33.47
2023-01-25T19:38:40.336Z,37.70
2023-01-25T19:41:13.002Z,36.47
2023-01-25T19:43:43.721Z,38.33
2023-01-25T19:46:25.647Z,33.45
2023-01-25T19:48:53.966Z,35.83
2023-01-25T19:51:23.215Z,36.38
2023-01-25T19:53:55.708Z,29.25
2023-01-25T19:56:22.371Z,36.78
2023-01-25T19:58:50.824Z,41.83
2023-01-25T20:01:20.193Z,32.03
2023-01-25T20:03:47.774Z,26.45
2023-01-25T20:06:18.214Z,43.42
2023-01-25T20:08:46.107Z,30.92
2023-01-25T20:11:20.077Z,34.17
2023-01-25T20:13:48.802Z,29.90
2023-01-25T20:16:19.002Z,26.23
2023-01-25T20:18:47.347Z,40.15
2023-01-25T20:21:19.832Z,32.72
2023-01-25T20:23:48.875Z,46.90
2023-01-25T20:26:21.828Z,36.95
2023-01-25T20:28:52.792Z,33.30
2023-01-25T20:31:37.952Z,28.85
2023-01-25T20:34:07.844Z,25.00
2023-01-25T20:36:35.726Z,25.60
2023-01-25T20:39:03.253Z,36.30
2023-01-25T20:41:30.429Z,33.47
2023-01-25T20:44:04.364Z,36.60
2023-01-25T20:46:33.953Z,23.13
2023-01-25T20:49:01.688Z,46.65
2023-01-25T20:51:28.440Z,36.97
2023-01-25T20:53:56.357Z,39.35
2023-01-25T20:56:23.451Z,33.47
2023-01-25T20:58:50.957Z,47.15
2023-01-25T21:01:19.355Z,36.45
2023-01-25T21:03:46.469Z,30.88
2023-01-25T21:06:13.772Z,36.03
2023-01-25T21:08:40.703Z,30.70
2023-01-25T21:11:07.919Z,29.77
2023-01-25T21:13:35.931Z,20.45
2023-01-25T21:16:05.497Z,31.50
2023-01-25T21:18:37.570Z,40.50
2023-01-25T21:21:17.058Z,32.13
2023-01-25T21:23:46.163Z,43.15
2023-01-25T21:26:18.855Z,28.88
2023-01-25T21:28:46.359Z,26.15
2023-01-25T21:31:18.614Z,32.13
2023-01-25T21:33:46.005Z,28.30
2023-01-25T21:36:16.952Z,31.98
2023-01-25T21:38:46.419Z,34.83
2023-01-25T21:41:16.165Z,21.75
2023-01-25T21:44:01.830Z,38.75
2023-01-25T21:46:29.938Z,26.90
2023-01-25T21:49:17.725Z,26.23
2023-01-25T21:51:49.418Z,35.78
2023-01-25T21:54:27.393Z,29.13
2023-01-25T21:56:56.167Z,34.40
2023-01-25T21:59:23.514Z,39.17
2023-01-25T22:01:51.433Z,35.65
2023-01-25T22:04:19.473Z,30.52
2023-01-25T22:06:48.660Z,35.10
2023-01-25T22:09:15.911Z,29.02
2023-01-25T22:11:45.734Z,29.02
2023-01-25T22:14:13.577Z,28.52
2023-01-25T22:16:40.470Z,31.65
2023-01-25T22:19:07.359Z,25.38
2023-01-25T22:21:34.008Z,30.00
2023-01-25T22:24:02.840Z,30.40
2023-01-25T22:26:57.568Z,36.47
2023-01-25T22:29:25.323Z,21.85
2023-01-25T22:31:51.969Z,26.42
2023-01-25T22:34:18.788Z,35.72
2023-01-25T22:36:45.622Z,29.67
2023-01-25T22:39:15.781Z,28.83
2023-01-25T22:41:42.680Z,27.98
2023-01-25T22:44:09.926Z,25.00
2023-01-25T22:46:37.225Z,30.80
2023-01-25T22:49:04.784Z,25.88
2023-01-25T22:51:31.705Z,26.10
2023-01-25T22:54:00.686Z,28.52
2023-01-25T22:56:32.206Z,22.15
2023-01-25T22:59:00.211Z,31.58
2023-01-25T23:01:32.972Z,23.38
2023-01-25T23:04:00.694Z,23.45
2023-01-25T23:06:34.127Z,26.25
2023-01-25T23:09:04.144Z,26.90
2023-01-25T23:11:35.362Z,24.23
2023-01-25T23:14:21.576Z,21.50
2023-01-25T23:16:48.252Z,21.65
2023-01-25T23:19:15.516Z,25.15
2023-01-25T23:21:42.339Z,19.80
2023-01-25T23:24:09.711Z,25.38
2023-01-25T23:26:45.995Z,30.92
2023-01-25T23:29:13.371Z,25.95
2023-01-25T23:31:40.048Z,22.60
2023-01-25T23:34:07.205Z,23.23
2023-01-25T23:36:38.536Z,25.70
2023-01-25T23:39:05.684Z,18.10
2023-01-25T23:41:32.395Z,21.08
2023-01-25T23:43:59.663Z,23.80
2023-01-25T23:46:28.112Z,17.42
2023-01-25T23:48:55.171Z,22.25
2023-01-25T23:51:21.802Z,21.20
2023-01-25T23:53:48.454Z,25.38
2023-01-25T23:56:18.150Z,21.05
2023-01-25T23:58:45.147Z,24.02
